createdAt,value
2019-06-10T00:03:26.095Z,10.43
2019-06-10T00:09:31.223Z,10.40
2019-06-10T00:15:35.642Z,10.90
2019-06-10T00:21:41.363Z,10.90
2019-06-10T00:27:45.710Z,11.65
2019-06-10T00:33:51.976Z,11.68
2019-06-10T00:39:55.853Z,11.65
2019-06-10T00:46:02.808Z,11.60
2019-06-10T00:52:07.350Z,11.55
2019-06-10T00:58:13.982Z,11.75
2019-06-10T01:04:17.608Z,11.70
2019-06-10T01:10:21.945Z,12.43
2019-06-10T01:16:26.181Z,12.60
2019-06-10T01:22:31.587Z,12.13
2019-06-10T01:28:35.915Z,13.22
2019-06-10T01:34:41.686Z,13.18
2019-06-10T01:40:46.175Z,13.30
2019-06-10T01:46:51.624Z,12.85
2019-06-10T01:52:56.285Z,12.78
2019-06-10T01:59:01.485Z,13.38
2019-06-10T02:05:06.271Z,12.93
2019-06-10T02:11:14.047Z,13.08
2019-06-10T02:17:17.976Z,13.05
2019-06-10T02:23:23.310Z,12.88
2019-06-10T02:29:27.667Z,13.00
2019-06-10T02:35:44.036Z,13.03
2019-06-10T02:41:38.312Z,12.85
2019-06-10T02:47:44.354Z,12.40
2019-06-10T02:53:48.834Z,11.78
2019-06-10T02:59:54.391Z,11.43
2019-06-10T03:05:59.018Z,11.78
2019-06-10T03:12:04.770Z,12.23
2019-06-10T03:18:09.280Z,11.35
2019-06-10T03:24:13.559Z,10.88
2019-06-10T03:30:28.662Z,10.08
2019-06-10T03:36:25.733Z,11.00
2019-06-10T03:42:32.356Z,9.90
2019-06-10T03:48:36.124Z,8.70
2019-06-10T03:54:43.067Z,8.55
2019-06-10T04:00:46.256Z,9.18
2019-06-10T04:06:53.110Z,7.92
2019-06-10T04:12:56.542Z,8.33
2019-06-10T04:19:02.582Z,7.42
2019-06-10T04:25:07.058Z,7.65
2019-06-10T04:31:13.119Z,7.40
2019-06-10T04:37:18.367Z,7.37
2019-06-10T04:43:23.457Z,6.97
2019-06-10T04:49:29.774Z,7.30
2019-06-10T04:55:34.146Z,6.62
2019-06-10T05:01:38.578Z,6.45
2019-06-10T05:07:42.967Z,6.35
2019-06-10T05:13:47.242Z,6.10
2019-06-10T05:19:53.094Z,6.30
2019-06-10T05:25:57.382Z,6.80
2019-06-10T05:32:02.551Z,6.20
2019-06-10T05:38:06.971Z,6.78
2019-06-10T05:44:13.483Z,7.30
2019-06-10T05:50:17.233Z,7.67
2019-06-10T05:56:23.344Z,7.42
2019-06-10T06:02:27.775Z,7.90
2019-06-10T06:08:34.036Z,8.03
2019-06-10T06:14:37.952Z,7.60
2019-06-10T06:20:43.627Z,7.72
2019-06-10T06:26:48.082Z,8.60
2019-06-10T06:32:53.255Z,8.35
2019-06-10T06:39:02.307Z,8.15
2019-06-10T06:45:08.104Z,9.15
2019-06-10T06:51:13.079Z,10.65
2019-06-10T06:57:17.530Z,10.32
2019-06-10T07:03:22.976Z,11.55
2019-06-10T07:09:28.366Z,11.43
2019-06-10T07:15:42.222Z,13.50
2019-06-10T07:22:07.491Z,11.73
2019-06-10T07:27:52.761Z,12.05
2019-06-10T07:33:57.199Z,12.00
2019-06-10T07:40:03.033Z,9.93
2019-06-10T07:46:07.671Z,10.98
2019-06-10T07:52:16.519Z,10.05
2019-06-10T07:58:17.826Z,9.60
2019-06-10T08:04:22.662Z,9.05
2019-06-10T08:10:27.028Z,8.68
2019-06-10T08:16:32.730Z,9.20
2019-06-10T08:22:40.627Z,9.20
2019-06-10T08:28:46.501Z,9.00
2019-06-10T08:34:49.202Z,9.15
2019-06-10T08:40:53.509Z,9.08
2019-06-10T08:46:57.791Z,8.83
2019-06-10T08:53:13.904Z,8.93
2019-06-10T08:59:08.225Z,8.55
2019-06-10T09:05:16.507Z,6.10
2019-06-10T09:11:23.602Z,8.20
2019-06-10T09:17:26.639Z,8.75
2019-06-10T09:23:33.053Z,9.88
2019-06-10T09:29:36.878Z,9.38
2019-06-10T09:35:45.506Z,10.63
2019-06-10T09:41:54.898Z,10.32
2019-06-10T09:47:59.648Z,11.57
2019-06-10T09:54:03.702Z,6.42
2019-06-10T10:00:08.589Z,11.33
2019-06-10T10:06:15.584Z,13.22
2019-06-10T10:12:18.917Z,12.40
2019-06-10T10:18:23.663Z,15.53
2019-06-10T10:24:28.079Z,15.32
2019-06-10T10:30:33.236Z,18.15
2019-06-10T10:36:37.774Z,17.80
2019-06-10T10:42:47.876Z,23.50
2019-06-10T10:48:49.032Z,22.05
2019-06-10T10:54:54.295Z,19.92
2019-06-10T11:00:59.312Z,18.48
2019-06-10T11:07:03.551Z,20.00
2019-06-10T11:13:09.218Z,17.98
2019-06-10T11:19:13.424Z,15.13
2019-06-10T11:25:17.761Z,17.07
2019-06-10T11:31:22.698Z,16.52
2019-06-10T11:37:27.043Z,9.23
2019-06-10T11:43:33.195Z,9.93
2019-06-10T11:49:37.203Z,17.52
2019-06-10T11:55:42.359Z,10.43
2019-06-10T12:01:49.193Z,21.02
2019-06-10T12:07:56.376Z,21.85
2019-06-10T12:14:04.193Z,23.10
2019-06-10T12:20:07.656Z,20.48
2019-06-10T12:26:11.328Z,20.85
2019-06-10T12:32:15.531Z,20.95
2019-06-10T12:38:22.783Z,20.85
2019-06-10T12:44:26.640Z,14.93
2019-06-10T12:50:31.333Z,18.73
2019-06-10T12:56:35.603Z,19.30
2019-06-10T13:02:39.940Z,11.40
2019-06-10T13:08:45.058Z,17.32
2019-06-10T13:14:51.935Z,15.43
2019-06-10T13:20:57.280Z,10.25
2019-06-10T13:27:03.465Z,17.67
2019-06-10T13:33:11.285Z,13.38
2019-06-10T13:39:13.671Z,16.10
2019-06-10T13:45:18.855Z,16.15
2019-06-10T13:51:23.496Z,15.90
2019-06-10T13:57:27.767Z,16.37
2019-06-10T14:03:32.603Z,17.90
2019-06-10T14:09:37.145Z,20.88
2019-06-10T14:15:42.730Z,17.85
2019-06-10T14:21:46.850Z,12.10
2019-06-10T14:27:53.221Z,10.20
2019-06-10T14:33:57.636Z,19.05
2019-06-10T14:40:03.939Z,12.80
2019-06-10T14:46:09.109Z,13.55
2019-06-10T14:52:16.417Z,19.52
2019-06-10T14:58:19.699Z,20.70
2019-06-10T15:04:23.936Z,14.58
2019-06-10T15:10:28.142Z,20.25
2019-06-10T15:16:33.593Z,12.00
2019-06-10T15:22:37.962Z,21.02
2019-06-10T15:28:42.735Z,22.15
2019-06-10T15:34:47.042Z,23.00
2019-06-10T15:40:53.106Z,14.33
2019-06-10T15:46:57.377Z,23.40
2019-06-10T15:53:03.145Z,14.25
2019-06-10T15:59:07.713Z,22.00
2019-06-10T16:05:14.387Z,17.75
2019-06-10T16:11:20.014Z,19.23
2019-06-10T16:17:24.188Z,22.82
2019-06-10T16:23:28.421Z,22.95
2019-06-10T16:29:33.402Z,23.77
2019-06-10T16:35:37.658Z,22.15
2019-06-10T16:41:43.009Z,16.55
2019-06-10T16:47:47.383Z,15.15
2019-06-10T16:53:52.947Z,13.98
2019-06-10T16:59:57.361Z,10.48
2019-06-10T17:06:02.532Z,11.35
2019-06-10T17:12:06.977Z,10.95
2019-06-10T17:18:13.092Z,9.48
2019-06-10T17:24:17.062Z,8.53
2019-06-10T17:30:23.409Z,6.85
2019-06-10T17:36:30.584Z,6.08
2019-06-10T17:42:38.196Z,6.65
2019-06-10T17:48:39.759Z,4.83
2019-06-10T17:54:46.958Z,2.47
2019-06-10T18:00:53.009Z,2.52
2019-06-10T18:06:56.601Z,3.22
2019-06-10T18:13:13.298Z,3.00
2019-06-10T18:19:06.799Z,2.95
2019-06-10T18:25:12.339Z,3.55
2019-06-10T18:31:18.687Z,3.95
2019-06-10T18:37:22.886Z,4.22
2019-06-10T18:43:27.667Z,4.30
2019-06-10T18:49:34.003Z,4.47
2019-06-10T18:55:40.413Z,4.62
2019-06-10T19:01:44.013Z,5.97
2019-06-10T19:07:48.222Z,5.35
2019-06-10T19:13:52.919Z,5.10
2019-06-10T19:19:57.370Z,4.78
2019-06-10T19:26:02.963Z,5.35
2019-06-10T19:32:07.466Z,6.08
2019-06-10T19:38:12.588Z,4.80
2019-06-10T19:44:16.935Z,5.75
2019-06-10T19:50:21.113Z,4.53
2019-06-10T19:56:26.525Z,4.80
2019-06-10T20:02:33.019Z,5.37
2019-06-10T20:08:37.931Z,5.15
2019-06-10T20:14:43.609Z,4.28
2019-06-10T20:20:49.027Z,4.12
2019-06-10T20:26:53.431Z,3.30
2019-06-10T20:32:57.759Z,3.80
2019-06-10T20:39:01.977Z,4.03
2019-06-10T20:45:09.351Z,3.20
2019-06-10T20:51:13.677Z,2.83
2019-06-10T20:57:17.900Z,2.58
2019-06-10T21:03:23.132Z,2.60
2019-06-10T21:09:27.909Z,2.00
2019-06-10T21:15:33.324Z,1.70
2019-06-10T21:21:37.838Z,1.70
2019-06-10T21:27:43.707Z,1.62
2019-06-10T21:33:49.547Z,1.45
2019-06-10T21:39:55.506Z,1.75
2019-06-10T21:45:59.881Z,1.50
2019-06-10T21:52:04.209Z,1.42
2019-06-10T21:58:08.460Z,1.40
2019-06-10T22:04:13.402Z,1.50
2019-06-10T22:10:17.865Z,1.20
2019-06-10T22:16:22.732Z,1.00
2019-06-10T22:22:26.984Z,1.20
2019-06-10T22:28:32.786Z,1.45
2019-06-10T22:34:37.147Z,1.35
2019-06-10T22:40:42.621Z,1.47
2019-06-10T22:46:47.569Z,1.55
2019-06-10T22:52:54.110Z,1.65
2019-06-10T22:58:58.015Z,5.05
2019-06-10T23:05:05.247Z,1.20
2019-06-10T23:11:08.340Z,1.35
2019-06-10T23:17:14.164Z,1.60
2019-06-10T23:23:18.547Z,1.40
2019-06-10T23:29:22.871Z,1.60
2019-06-10T23:35:27.184Z,1.80
2019-06-10T23:41:32.864Z,1.85
2019-06-10T23:47:37.262Z,1.95
2019-06-10T23:53:41.462Z,2.27
2019-06-10T23:59:45.743Z,2.20
